sensor_id;sensor_type;location;lat;lon;timestamp;pressure;altitude;pressure_sealevel;temperature
24586;BMP280;12743;52.262;6.172;2023-07-13T00:00:47;100337.56;;;17.02
24586;BMP280;12743;52.262;6.172;2023-07-13T00:03:14;100345.91;;;17.12
24586;BMP280;12743;52.262;6.172;2023-07-13T00:05:41;100324.28;;;17.02
24586;BMP280;12743;52.262;6.172;2023-07-13T00:08:08;100337.59;;;17.06
24586;BMP280;12743;52.262;6.172;2023-07-13T00:10:40;100315.94;;;17.00
24586;BMP280;12743;52.262;6.172;2023-07-13T00:13:08;100301.91;;;17.07
24586;BMP280;12743;52.262;6.172;2023-07-13T00:15:35;100294.34;;;17.09
24586;BMP280;12743;52.262;6.172;2023-07-13T00:18:02;100267.06;;;16.91
24586;BMP280;12743;52.262;6.172;2023-07-13T00:20:29;100268.59;;;16.92
24586;BMP280;12743;52.262;6.172;2023-07-13T00:22:56;100250.00;;;16.81
24586;BMP280;12743;52.262;6.172;2023-07-13T00:25:23;100194.31;;;16.46
24586;BMP280;12743;52.262;6.172;2023-07-13T00:27:56;100192.03;;;16.73
24586;BMP280;12743;52.262;6.172;2023-07-13T00:30:23;100178.00;;;16.48
24586;BMP280;12743;52.262;6.172;2023-07-13T00:32:50;100169.69;;;16.39
24586;BMP280;12743;52.262;6.172;2023-07-13T00:35:30;100149.59;;;16.38
24586;BMP280;12743;52.262;6.172;2023-07-13T00:37:57;100159.84;;;16.53
24586;BMP280;12743;52.262;6.172;2023-07-13T00:40:24;100169.72;;;16.46
24586;BMP280;12743;52.262;6.172;2023-07-13T00:42:52;100156.44;;;16.35
24586;BMP280;12743;52.262;6.172;2023-07-13T00:47:46;100137.13;;;16.35
24586;BMP280;12743;52.262;6.172;2023-07-13T00:50:16;100149.25;;;16.50
24586;BMP280;12743;52.262;6.172;2023-07-13T00:52:46;100089.41;;;16.03
24586;BMP280;12743;52.262;6.172;2023-07-13T00:55:15;100118.56;;;16.13
24586;BMP280;12743;52.262;6.172;2023-07-13T00:57:43;100128.75;;;16.08
24586;BMP280;12743;52.262;6.172;2023-07-13T01:00:10;100118.53;;;16.06
24586;BMP280;12743;52.262;6.172;2023-07-13T01:02:41;100105.69;;;16.08
24586;BMP280;12743;52.262;6.172;2023-07-13T01:05:11;100104.53;;;16.02
24586;BMP280;12743;52.262;6.172;2023-07-13T01:07:38;100109.84;;;16.09
24586;BMP280;12743;52.262;6.172;2023-07-13T01:10:06;100095.03;;;15.94
24586;BMP280;12743;52.262;6.172;2023-07-13T01:12:33;100103.38;;;15.89
24586;BMP280;12743;52.262;6.172;2023-07-13T01:15:01;100098.88;;;16.04
24586;BMP280;12743;52.262;6.172;2023-07-13T01:17:29;100105.28;;;15.96
24586;BMP280;12743;52.262;6.172;2023-07-13T01:19:55;100098.47;;;15.91
24586;BMP280;12743;52.262;6.172;2023-07-13T01:22:22;100095.06;;;15.91
24586;BMP280;12743;52.262;6.172;2023-07-13T01:24:53;100099.25;;;15.99
24586;BMP280;12743;52.262;6.172;2023-07-13T01:27:24;100070.81;;;15.71
24586;BMP280;12743;52.262;6.172;2023-07-13T01:29:52;100091.25;;;15.81
24586;BMP280;12743;52.262;6.172;2023-07-13T01:32:21;100066.66;;;15.74
24586;BMP280;12743;52.262;6.172;2023-07-13T01:34:54;100079.50;;;15.75
24586;BMP280;12743;52.262;6.172;2023-07-13T01:37:23;100069.34;;;15.81
24586;BMP280;12743;52.262;6.172;2023-07-13T01:39:51;100071.16;;;15.63
24586;BMP280;12743;52.262;6.172;2023-07-13T01:42:18;100079.88;;;15.63
24586;BMP280;12743;52.262;6.172;2023-07-13T01:44:47;100073.84;;;15.66
24586;BMP280;12743;52.262;6.172;2023-07-13T01:47:14;100078.38;;;15.69
24586;BMP280;12743;52.262;6.172;2023-07-13T01:49:40;100079.50;;;15.72
24586;BMP280;12743;52.262;6.172;2023-07-13T01:52:07;100088.94;;;15.69
24586;BMP280;12743;52.262;6.172;2023-07-13T01:54:34;100059.41;;;15.57
24586;BMP280;12743;52.262;6.172;2023-07-13T01:57:00;100073.03;;;15.48
24586;BMP280;12743;52.262;6.172;2023-07-13T01:59:27;100069.25;;;15.53
24586;BMP280;12743;52.262;6.172;2023-07-13T02:01:54;100070.41;;;15.73
24586;BMP280;12743;52.262;6.172;2023-07-13T02:04:21;100073.44;;;15.64
24586;BMP280;12743;52.262;6.172;2023-07-13T02:06:48;100067.78;;;15.73
24586;BMP280;12743;52.262;6.172;2023-07-13T02:09:15;100059.41;;;15.57
24586;BMP280;12743;52.262;6.172;2023-07-13T02:11:42;100066.97;;;15.58
24586;BMP280;12743;52.262;6.172;2023-07-13T02:14:08;100075.28;;;15.50
24586;BMP280;12743;52.262;6.172;2023-07-13T02:16:35;100076.03;;;15.47
24586;BMP280;12743;52.262;6.172;2023-07-13T02:19:02;100082.81;;;15.41
24586;BMP280;12743;52.262;6.172;2023-07-13T02:21:29;100088.91;;;15.55
24586;BMP280;12743;52.262;6.172;2023-07-13T02:23:56;100066.88;;;15.26
24586;BMP280;12743;52.262;6.172;2023-07-13T02:26:24;100090.03;;;15.47
24586;BMP280;12743;52.262;6.172;2023-07-13T02:28:51;100077.94;;;15.57
24586;BMP280;12743;52.262;6.172;2023-07-13T02:31:19;100090.38;;;15.46
24586;BMP280;12743;52.262;6.172;2023-07-13T02:33:46;100084.03;;;15.61
24586;BMP280;12743;52.262;6.172;2023-07-13T02:36:13;100062.72;;;15.25
24586;BMP280;12743;52.262;6.172;2023-07-13T02:38:41;100067.25;;;15.25
24586;BMP280;12743;52.262;6.172;2023-07-13T02:41:08;100054.78;;;15.22
24586;BMP280;12743;52.262;6.172;2023-07-13T02:43:37;100070.66;;;15.25
24586;BMP280;12743;52.262;6.172;2023-07-13T02:46:08;100072.13;;;15.19
24586;BMP280;12743;52.262;6.172;2023-07-13T02:48:36;100064.28;;;15.34
24586;BMP280;12743;52.262;6.172;2023-07-13T02:51:04;100074.41;;;15.17
24586;BMP280;12743;52.262;6.172;2023-07-13T02:53:31;100067.97;;;15.11
24586;BMP280;12743;52.262;6.172;2023-07-13T02:55:58;100061.94;;;15.14
24586;BMP280;12743;52.262;6.172;2023-07-13T02:58:25;100058.09;;;15.12
24586;BMP280;12743;52.262;6.172;2023-07-13T03:00:52;100050.19;;;15.08
24586;BMP280;12743;52.262;6.172;2023-07-13T03:03:18;100066.75;;;14.98
24586;BMP280;12743;52.262;6.172;2023-07-13T03:05:46;100067.56;;;15.13
24586;BMP280;12743;52.262;6.172;2023-07-13T03:08:20;100072.44;;;15.04
24586;BMP280;12743;52.262;6.172;2023-07-13T03:10:58;100057.66;;;14.96
24586;BMP280;12743;52.262;6.172;2023-07-13T03:13:26;100075.03;;;14.93
24586;BMP280;12743;52.262;6.172;2023-07-13T03:15:53;100078.44;;;14.94
24586;BMP280;12743;52.262;6.172;2023-07-13T03:18:19;100062.19;;;14.92
24586;BMP280;12743;52.262;6.172;2023-07-13T03:20:50;100061.72;;;14.79
24586;BMP280;12743;52.262;6.172;2023-07-13T03:23:17;100081.09;;;14.94
24586;BMP280;12743;52.262;6.172;2023-07-13T03:25:44;100064.78;;;14.81
24586;BMP280;12743;52.262;6.172;2023-07-13T03:28:12;100057.59;;;14.82
24586;BMP280;12743;52.262;6.172;2023-07-13T03:30:40;100066.69;;;14.88
24586;BMP280;12743;52.262;6.172;2023-07-13T03:33:08;100059.47;;;14.81
24586;BMP280;12743;52.262;6.172;2023-07-13T03:35:35;100068.25;;;14.99
24586;BMP280;12743;52.262;6.172;2023-07-13T03:38:01;100071.34;;;15.05
24586;BMP280;12743;52.262;6.172;2023-07-13T03:40:28;100082.91;;;14.90
24586;BMP280;12743;52.262;6.172;2023-07-13T03:42:55;100074.97;;;14.83
24586;BMP280;12743;52.262;6.172;2023-07-13T03:45:22;100076.84;;;14.86
24586;BMP280;12743;52.262;6.172;2023-07-13T03:47:48;100064.41;;;14.83
24586;BMP280;12743;52.262;6.172;2023-07-13T03:50:16;100080.19;;;14.76
24586;BMP280;12743;52.262;6.172;2023-07-13T03:52:42;100078.38;;;14.87
24586;BMP280;12743;52.262;6.172;2023-07-13T03:55:09;100071.91;;;14.77
24586;BMP280;12743;52.262;6.172;2023-07-13T03:57:36;100082.50;;;14.81
24586;BMP280;12743;52.262;6.172;2023-07-13T04:00:07;100076.47;;;14.80
24586;BMP280;12743;52.262;6.172;2023-07-13T04:02:41;100078.00;;;14.85
24586;BMP280;12743;52.262;6.172;2023-07-13T04:05:08;100078.75;;;14.82
24586;BMP280;12743;52.262;6.172;2023-07-13T04:07:34;100087.34;;;14.72
24586;BMP280;12743;52.262;6.172;2023-07-13T04:10:01;100083.53;;;14.69
24586;BMP280;12743;52.262;6.172;2023-07-13T04:12:29;100077.56;;;14.76
24586;BMP280;12743;52.262;6.172;2023-07-13T04:14:56;100075.34;;;14.85
24586;BMP280;12743;52.262;6.172;2023-07-13T04:17:23;100086.28;;;14.83
24586;BMP280;12743;52.262;6.172;2023-07-13T04:19:50;100086.69;;;14.82
24586;BMP280;12743;52.262;6.172;2023-07-13T04:22:16;100080.19;;;14.76
24586;BMP280;12743;52.262;6.172;2023-07-13T04:24:43;100080.88;;;14.66
24586;BMP280;12743;52.262;6.172;2023-07-13T04:27:10;100077.16;;;14.74
24586;BMP280;12743;52.262;6.172;2023-07-13T04:29:36;100078.72;;;14.78
24586;BMP280;12743;52.262;6.172;2023-07-13T04:32:04;100084.78;;;14.86
24586;BMP280;12743;52.262;6.172;2023-07-13T04:34:30;100088.56;;;14.85
24586;BMP280;12743;52.262;6.172;2023-07-13T04:36:57;100083.22;;;14.78
24586;BMP280;12743;52.262;6.172;2023-07-13T04:39:24;100085.88;;;14.78
24586;BMP280;12743;52.262;6.172;2023-07-13T04:41:50;100070.06;;;14.85
24586;BMP280;12743;52.262;6.172;2023-07-13T04:44:17;100086.31;;;14.87
24586;BMP280;12743;52.262;6.172;2023-07-13T04:46:44;100090.13;;;14.93
24586;BMP280;12743;52.262;6.172;2023-07-13T04:49:11;100087.50;;;14.93
24586;BMP280;12743;52.262;6.172;2023-07-13T04:51:37;100087.16;;;14.98
24586;BMP280;12743;52.262;6.172;2023-07-13T04:54:04;100083.41;;;15.06
24586;BMP280;12743;52.262;6.172;2023-07-13T04:56:31;100091.31;;;15.02
24586;BMP280;12743;52.262;6.172;2023-07-13T04:58:58;100101.16;;;15.05
24586;BMP280;12743;52.262;6.172;2023-07-13T05:01:25;100093.22;;;15.02
24586;BMP280;12743;52.262;6.172;2023-07-13T05:03:51;100092.50;;;15.08
24586;BMP280;12743;52.262;6.172;2023-07-13T05:06:18;100103.13;;;15.19
24586;BMP280;12743;52.262;6.172;2023-07-13T05:08:45;100100.88;;;15.24
24586;BMP280;12743;52.262;6.172;2023-07-13T05:11:12;100095.56;;;15.17
24586;BMP280;12743;52.262;6.172;2023-07-13T05:13:39;100103.97;;;15.37
24586;BMP280;12743;52.262;6.172;2023-07-13T05:16:06;100110.00;;;15.34
24586;BMP280;12743;52.262;6.172;2023-07-13T05:18:35;100105.84;;;15.37
24586;BMP280;12743;52.262;6.172;2023-07-13T05:21:04;100105.13;;;15.43
24586;BMP280;12743;52.262;6.172;2023-07-13T05:23:32;100115.81;;;15.64
24586;BMP280;12743;52.262;6.172;2023-07-13T05:25:59;100119.19;;;15.65
24586;BMP280;12743;52.262;6.172;2023-07-13T05:28:27;100128.31;;;15.78
24586;BMP280;12743;52.262;6.172;2023-07-13T05:30:55;100137.78;;;15.89
24586;BMP280;12743;52.262;6.172;2023-07-13T05:33:23;100126.84;;;15.91
24586;BMP280;12743;52.262;6.172;2023-07-13T05:35:49;100145.81;;;16.03
24586;BMP280;12743;52.262;6.172;2023-07-13T05:38:16;100113.19;;;15.82
24586;BMP280;12743;52.262;6.172;2023-07-13T05:40:43;100139.34;;;16.01
24586;BMP280;12743;52.262;6.172;2023-07-13T05:43:10;100141.25;;;15.93
24586;BMP280;12743;52.262;6.172;2023-07-13T05:45:37;100127.63;;;15.98
24586;BMP280;12743;52.262;6.172;2023-07-13T05:48:04;100125.75;;;16.09
24586;BMP280;12743;52.262;6.172;2023-07-13T05:50:31;100132.97;;;16.23
24586;BMP280;12743;52.262;6.172;2023-07-13T05:52:58;100149.22;;;16.29
24586;BMP280;12743;52.262;6.172;2023-07-13T05:55:24;100153.00;;;16.28
24586;BMP280;12743;52.262;6.172;2023-07-13T05:57:51;100002.28;;;15.35
24586;BMP280;12743;52.262;6.172;2023-07-13T06:00:18;100136.72;;;16.22
24586;BMP280;12743;52.262;6.172;2023-07-13T06:02:44;100132.56;;;16.53
24586;BMP280;12743;52.262;6.172;2023-07-13T06:05:11;100132.59;;;16.46
24586;BMP280;12743;52.262;6.172;2023-07-13T06:07:38;100126.13;;;16.36
24586;BMP280;12743;52.262;6.172;2023-07-13T06:10:05;100142.41;;;16.42
24586;BMP280;12743;52.262;6.172;2023-07-13T06:12:31;100146.19;;;16.62
24586;BMP280;12743;52.262;6.172;2023-07-13T06:14:58;100159.41;;;16.93
24586;BMP280;12743;52.262;6.172;2023-07-13T06:17:25;100167.78;;;16.81
24586;BMP280;12743;52.262;6.172;2023-07-13T06:19:51;100162.09;;;16.83
24586;BMP280;12743;52.262;6.172;2023-07-13T06:22:18;100175.31;;;16.97
24586;BMP280;12743;52.262;6.172;2023-07-13T06:24:45;100176.84;;;16.98
24586;BMP280;12743;52.262;6.172;2023-07-13T06:27:11;100175.72;;;17.06
24586;BMP280;12743;52.262;6.172;2023-07-13T06:29:38;100169.31;;;16.89
24586;BMP280;12743;52.262;6.172;2023-07-13T06:32:06;100175.72;;;16.88
24586;BMP280;12743;52.262;6.172;2023-07-13T06:34:33;100182.84;;;17.23
24586;BMP280;12743;52.262;6.172;2023-07-13T06:37:00;100198.06;;;17.19
24586;BMP280;12743;52.262;6.172;2023-07-13T06:39:26;100197.63;;;17.35
24586;BMP280;12743;52.262;6.172;2023-07-13T06:41:53;100198.38;;;17.46
24586;BMP280;12743;52.262;6.172;2023-07-13T06:44:20;100204.09;;;17.27
24586;BMP280;12743;52.262;6.172;2023-07-13T06:46:47;100201.06;;;17.28
24586;BMP280;12743;52.262;6.172;2023-07-13T06:49:15;100201.38;;;17.51
24586;BMP280;12743;52.262;6.172;2023-07-13T06:51:41;100207.81;;;17.43
24586;BMP280;12743;52.262;6.172;2023-07-13T06:54:08;100201.69;;;17.64
24586;BMP280;12743;52.262;6.172;2023-07-13T06:56:34;100231.91;;;17.98
24586;BMP280;12743;52.262;6.172;2023-07-13T06:59:01;100215.97;;;17.98
24586;BMP280;12743;52.262;6.172;2023-07-13T07:01:28;100223.97;;;17.87
24586;BMP280;12743;52.262;6.172;2023-07-13T07:03:54;100236.72;;;18.21
24586;BMP280;12743;52.262;6.172;2023-07-13T07:06:22;100240.22;;;18.00
24586;BMP280;12743;52.262;6.172;2023-07-13T07:08:52;100231.91;;;17.95
24586;BMP280;12743;52.262;6.172;2023-07-13T07:11:21;100248.69;;;17.84
24586;BMP280;12743;52.262;6.172;2023-07-13T07:13:52;100248.25;;;17.89
24586;BMP280;12743;52.262;6.172;2023-07-13T07:16:20;100260.66;;;18.17
24586;BMP280;12743;52.262;6.172;2023-07-13T07:18:47;100263.31;;;18.14
24586;BMP280;12743;52.262;6.172;2023-07-13T07:21:14;100260.81;;;18.54
24586;BMP280;12743;52.262;6.172;2023-07-13T07:23:41;100279.06;;;19.00
24586;BMP280;12743;52.262;6.172;2023-07-13T07:26:08;100292.75;;;18.47
24586;BMP280;12743;52.262;6.172;2023-07-13T07:28:36;100279.97;;;18.25
24586;BMP280;12743;52.262;6.172;2023-07-13T07:31:09;100288.50;;;18.57
24586;BMP280;12743;52.262;6.172;2023-07-13T07:33:39;100296.84;;;18.55
24586;BMP280;12743;52.262;6.172;2023-07-13T07:36:06;100328.25;;;18.78
24586;BMP280;12743;52.262;6.172;2023-07-13T07:38:35;100317.50;;;18.41
24586;BMP280;12743;52.262;6.172;2023-07-13T07:41:05;100302.50;;;18.64
24586;BMP280;12743;52.262;6.172;2023-07-13T07:43:34;100317.72;;;18.67
24586;BMP280;12743;52.262;6.172;2023-07-13T07:46:02;100301.63;;;18.27
24586;BMP280;12743;52.262;6.172;2023-07-13T07:48:29;100302.59;;;18.54
24586;BMP280;12743;52.262;6.172;2023-07-13T07:50:56;100339.75;;;19.16
24586;BMP280;12743;52.262;6.172;2023-07-13T07:53:23;100333.03;;;19.01
24586;BMP280;12743;52.262;6.172;2023-07-13T07:55:49;100347.59;;;18.86
24586;BMP280;12743;52.262;6.172;2023-07-13T07:58:20;100336.66;;;18.73
24586;BMP280;12743;52.262;6.172;2023-07-13T08:00:50;100321.94;;;18.58
24586;BMP280;12743;52.262;6.172;2023-07-13T08:03:19;100314.88;;;18.89
24586;BMP280;12743;52.262;6.172;2023-07-13T08:05:52;100324.56;;;19.13
24586;BMP280;12743;52.262;6.172;2023-07-13T08:08:39;100337.94;;;19.02
24586;BMP280;12743;52.262;6.172;2023-07-13T08:11:07;100331.16;;;18.98
24586;BMP280;12743;52.262;6.172;2023-07-13T08:13:37;100333.53;;;19.29
24586;BMP280;12743;52.262;6.172;2023-07-13T08:16:05;100344.78;;;19.07
24586;BMP280;12743;52.262;6.172;2023-07-13T08:18:32;100332.28;;;18.97
24586;BMP280;12743;52.262;6.172;2023-07-13T08:21:06;100320.06;;;19.06
24586;BMP280;12743;52.262;6.172;2023-07-13T08:23:34;100338.78;;;18.92
24586;BMP280;12743;52.262;6.172;2023-07-13T08:26:01;100361.03;;;19.16
24586;BMP280;12743;52.262;6.172;2023-07-13T08:28:28;100370.06;;;19.69
24586;BMP280;12743;52.262;6.172;2023-07-13T08:30:55;100410.75;;;19.73
24586;BMP280;12743;52.262;6.172;2023-07-13T08:33:22;100432.44;;;19.72
24586;BMP280;12743;52.262;6.172;2023-07-13T08:35:50;100409.94;;;19.36
24586;BMP280;12743;52.262;6.172;2023-07-13T08:38:18;100401.56;;;19.37
24586;BMP280;12743;52.262;6.172;2023-07-13T08:40:50;100409.28;;;19.25
24586;BMP280;12743;52.262;6.172;2023-07-13T08:43:23;100420.88;;;19.48
24586;BMP280;12743;52.262;6.172;2023-07-13T08:46:15;100428.56;;;19.36
24586;BMP280;12743;52.262;6.172;2023-07-13T08:49:23;100432.25;;;19.52
24586;BMP280;12743;52.262;6.172;2023-07-13T08:52:11;100435.25;;;19.54
24586;BMP280;12743;52.262;6.172;2023-07-13T08:54:38;100426.34;;;19.34
24586;BMP280;12743;52.262;6.172;2023-07-13T08:57:15;100431.75;;;19.20
24586;BMP280;12743;52.262;6.172;2023-07-13T08:59:41;100477.75;;;19.72
24586;BMP280;12743;52.262;6.172;2023-07-13T09:05:09;100464.81;;;19.70
24586;BMP280;12743;52.262;6.172;2023-07-13T09:10:46;100517.31;;;21.08
24586;BMP280;12743;52.262;6.172;2023-07-13T09:15:45;100575.66;;;20.79
24586;BMP280;12743;52.262;6.172;2023-07-13T09:18:46;100604.72;;;21.04
24586;BMP280;12743;52.262;6.172;2023-07-13T09:21:25;100642.50;;;20.32
24586;BMP280;12743;52.262;6.172;2023-07-13T09:23:54;100603.72;;;19.83
24586;BMP280;12743;52.262;6.172;2023-07-13T09:26:24;100603.41;;;20.15
24586;BMP280;12743;52.262;6.172;2023-07-13T09:28:55;100643.41;;;20.15
24586;BMP280;12743;52.262;6.172;2023-07-13T09:31:33;100657.63;;;19.98
24586;BMP280;12743;52.262;6.172;2023-07-13T09:34:01;100663.03;;;20.42
24586;BMP280;12743;52.262;6.172;2023-07-13T09:36:29;100741.31;;;21.36
24586;BMP280;12743;52.262;6.172;2023-07-13T09:39:21;100772.69;;;21.62
24586;BMP280;12743;52.262;6.172;2023-07-13T09:44:37;100794.84;;;20.48
24586;BMP280;12743;52.262;6.172;2023-07-13T09:47:15;100751.53;;;20.30
24586;BMP280;12743;52.262;6.172;2023-07-13T09:49:43;100756.09;;;20.33
24586;BMP280;12743;52.262;6.172;2023-07-13T09:52:15;100742.50;;;20.10
24586;BMP280;12743;52.262;6.172;2023-07-13T09:54:48;100588.81;;;19.86
24586;BMP280;12743;52.262;6.172;2023-07-13T09:57:17;100503.56;;;19.34
24586;BMP280;12743;52.262;6.172;2023-07-13T09:59:50;100325.75;;;18.57
24586;BMP280;12743;52.262;6.172;2023-07-13T10:04:56;100167.59;;;18.21
24586;BMP280;12743;52.262;6.172;2023-07-13T10:07:24;100199.50;;;18.68
24586;BMP280;12743;52.262;6.172;2023-07-13T10:10:00;100219.59;;;18.73
24586;BMP280;12743;52.262;6.172;2023-07-13T10:12:29;100205.03;;;19.22
24586;BMP280;12743;52.262;6.172;2023-07-13T10:14:59;100203.22;;;19.75
24586;BMP280;12743;52.262;6.172;2023-07-13T10:17:46;100236.53;;;19.64
24586;BMP280;12743;52.262;6.172;2023-07-13T10:20:13;100268.41;;;19.98
24586;BMP280;12743;52.262;6.172;2023-07-13T10:22:54;100239.09;;;20.47
24586;BMP280;12743;52.262;6.172;2023-07-13T10:25:27;100253.25;;;20.91
24586;BMP280;12743;52.262;6.172;2023-07-13T10:28:00;100341.50;;;20.80
24586;BMP280;12743;52.262;6.172;2023-07-13T10:30:32;100336.13;;;21.26
24586;BMP280;12743;52.262;6.172;2023-07-13T10:33:02;100567.47;;;21.24
24586;BMP280;12743;52.262;6.172;2023-07-13T10:35:31;100481.75;;;21.38
24586;BMP280;12743;52.262;6.172;2023-07-13T10:38:06;100519.50;;;21.63
24586;BMP280;12743;52.262;6.172;2023-07-13T10:40:41;100667.31;;;21.87
24586;BMP280;12743;52.262;6.172;2023-07-13T10:43:42;100663.81;;;21.90
24586;BMP280;12743;52.262;6.172;2023-07-13T10:46:11;100642.72;;;21.19
24586;BMP280;12743;52.262;6.172;2023-07-13T10:48:40;100602.56;;;20.96
24586;BMP280;12743;52.262;6.172;2023-07-13T10:51:10;100552.25;;;21.44
24586;BMP280;12743;52.262;6.172;2023-07-13T10:53:38;100578.53;;;20.96
24586;BMP280;12743;52.262;6.172;2023-07-13T10:56:35;100612.00;;;21.04
24586;BMP280;12743;52.262;6.172;2023-07-13T10:59:09;100557.47;;;20.71
24586;BMP280;12743;52.262;6.172;2023-07-13T11:01:50;100558.59;;;20.40
24586;BMP280;12743;52.262;6.172;2023-07-13T11:04:18;100404.88;;;19.52
24586;BMP280;12743;52.262;6.172;2023-07-13T11:06:48;100401.78;;;19.53
24586;BMP280;12743;52.262;6.172;2023-07-13T11:12:00;100387.16;;;19.31
24586;BMP280;12743;52.262;6.172;2023-07-13T11:14:37;100389.88;;;19.65
24586;BMP280;12743;52.262;6.172;2023-07-13T11:17:24;100358.91;;;19.78
24586;BMP280;12743;52.262;6.172;2023-07-13T11:23:07;100477.69;;;20.76
24586;BMP280;12743;52.262;6.172;2023-07-13T11:25:35;100507.75;;;21.11
24586;BMP280;12743;52.262;6.172;2023-07-13T11:30:40;100551.78;;;21.49
24586;BMP280;12743;52.262;6.172;2023-07-13T11:38:28;100697.28;;;22.24
24586;BMP280;12743;52.262;6.172;2023-07-13T11:40:58;100659.34;;;22.49
24586;BMP280;12743;52.262;6.172;2023-07-13T11:43:27;100720.41;;;22.57
24586;BMP280;12743;52.262;6.172;2023-07-13T11:45:55;100750.03;;;22.47
24586;BMP280;12743;52.262;6.172;2023-07-13T11:48:27;100798.16;;;22.50
24586;BMP280;12743;52.262;6.172;2023-07-13T11:50:58;100765.00;;;22.44
24586;BMP280;12743;52.262;6.172;2023-07-13T11:53:28;100744.28;;;21.45
24586;BMP280;12743;52.262;6.172;2023-07-13T11:55:56;100716.50;;;21.36
24586;BMP280;12743;52.262;6.172;2023-07-13T11:58:25;100730.28;;;21.34
24586;BMP280;12743;52.262;6.172;2023-07-13T12:00:55;100722.38;;;22.07
24586;BMP280;12743;52.262;6.172;2023-07-13T12:03:24;100854.72;;;22.26
24586;BMP280;12743;52.262;6.172;2023-07-13T12:06:05;100857.00;;;23.20
24586;BMP280;12743;52.262;6.172;2023-07-13T12:08:38;100912.22;;;23.56
24586;BMP280;12743;52.262;6.172;2023-07-13T12:11:16;100930.31;;;23.72
24586;BMP280;12743;52.262;6.172;2023-07-13T12:13:44;100924.19;;;22.86
24586;BMP280;12743;52.262;6.172;2023-07-13T12:16:31;100906.78;;;21.57
24586;BMP280;12743;52.262;6.172;2023-07-13T12:19:00;100565.59;;;21.44
24586;BMP280;12743;52.262;6.172;2023-07-13T12:21:34;100446.94;;;20.68
24586;BMP280;12743;52.262;6.172;2023-07-13T12:24:01;100552.28;;;20.57
24586;BMP280;12743;52.262;6.172;2023-07-13T12:26:30;100527.19;;;21.11
24586;BMP280;12743;52.262;6.172;2023-07-13T12:29:00;100581.91;;;21.76
24586;BMP280;12743;52.262;6.172;2023-07-13T12:31:39;100515.91;;;22.51
24586;BMP280;12743;52.262;6.172;2023-07-13T12:34:10;100788.97;;;22.02
24586;BMP280;12743;52.262;6.172;2023-07-13T12:36:51;100878.72;;;22.03
24586;BMP280;12743;52.262;6.172;2023-07-13T12:41:53;100800.31;;;23.21
24586;BMP280;12743;52.262;6.172;2023-07-13T12:44:29;100809.94;;;22.99
24586;BMP280;12743;52.262;6.172;2023-07-13T12:49:27;100757.41;;;21.63
24586;BMP280;12743;52.262;6.172;2023-07-13T12:51:59;100768.78;;;21.70
24586;BMP280;12743;52.262;6.172;2023-07-13T12:54:28;100811.50;;;21.74
24586;BMP280;12743;52.262;6.172;2023-07-13T12:56:56;100702.41;;;21.88
24586;BMP280;12743;52.262;6.172;2023-07-13T12:59:29;100732.81;;;21.75
24586;BMP280;12743;52.262;6.172;2023-07-13T13:01:57;100685.16;;;22.16
24586;BMP280;12743;52.262;6.172;2023-07-13T13:04:24;100783.69;;;21.68
24586;BMP280;12743;52.262;6.172;2023-07-13T13:07:01;100810.06;;;21.66
24586;BMP280;12743;52.262;6.172;2023-07-13T13:09:28;100741.28;;;21.70
24586;BMP280;12743;52.262;6.172;2023-07-13T13:11:54;100739.25;;;21.77
24586;BMP280;12743;52.262;6.172;2023-07-13T13:14:21;100784.16;;;21.63
24586;BMP280;12743;52.262;6.172;2023-07-13T13:16:49;100802.66;;;21.47
24586;BMP280;12743;52.262;6.172;2023-07-13T13:19:35;100846.69;;;21.69
24586;BMP280;12743;52.262;6.172;2023-07-13T13:22:02;100845.22;;;21.64
24586;BMP280;12743;52.262;6.172;2023-07-13T13:24:29;100860.88;;;21.66
24586;BMP280;12743;52.262;6.172;2023-07-13T13:26:56;100895.69;;;21.59
24586;BMP280;12743;52.262;6.172;2023-07-13T13:29:26;100885.84;;;21.86
24586;BMP280;12743;52.262;6.172;2023-07-13T13:31:54;100909.16;;;22.42
24586;BMP280;12743;52.262;6.172;2023-07-13T13:34:22;100872.34;;;23.58
24586;BMP280;12743;52.262;6.172;2023-07-13T13:36:54;100914.34;;;23.03
24586;BMP280;12743;52.262;6.172;2023-07-13T13:39:32;100912.22;;;23.14
24586;BMP280;12743;52.262;6.172;2023-07-13T13:42:00;100902.41;;;22.84
24586;BMP280;12743;52.262;6.172;2023-07-13T13:44:27;100946.50;;;22.23
24586;BMP280;12743;52.262;6.172;2023-07-13T13:46:55;100934.44;;;23.34
24586;BMP280;12743;52.262;6.172;2023-07-13T13:49:24;101005.13;;;24.25
24586;BMP280;12743;52.262;6.172;2023-07-13T13:51:54;101021.31;;;24.22
24586;BMP280;12743;52.262;6.172;2023-07-13T13:54:23;101023.84;;;24.09
24586;BMP280;12743;52.262;6.172;2023-07-13T13:56:51;101077.00;;;23.75
24586;BMP280;12743;52.262;6.172;2023-07-13T13:59:19;101061.88;;;23.84
24586;BMP280;12743;52.262;6.172;2023-07-13T14:01:46;101060.78;;;23.39
24586;BMP280;12743;52.262;6.172;2023-07-13T14:04:17;101079.50;;;22.89
24586;BMP280;12743;52.262;6.172;2023-07-13T14:06:45;101069.03;;;23.71
24586;BMP280;12743;52.262;6.172;2023-07-13T14:09:15;101024.00;;;23.17
24586;BMP280;12743;52.262;6.172;2023-07-13T14:11:43;101074.81;;;22.67
24586;BMP280;12743;52.262;6.172;2023-07-13T14:14:18;101084.28;;;23.97
24586;BMP280;12743;52.262;6.172;2023-07-13T14:16:45;101069.75;;;23.03
24586;BMP280;12743;52.262;6.172;2023-07-13T14:19:19;101034.31;;;22.91
24586;BMP280;12743;52.262;6.172;2023-07-13T14:21:46;101040.00;;;22.67
24586;BMP280;12743;52.262;6.172;2023-07-13T14:24:14;101027.31;;;22.71
24586;BMP280;12743;52.262;6.172;2023-07-13T14:26:41;101035.34;;;22.71
24586;BMP280;12743;52.262;6.172;2023-07-13T14:29:13;101057.16;;;23.49
24586;BMP280;12743;52.262;6.172;2023-07-13T14:31:41;101115.22;;;24.02
24586;BMP280;12743;52.262;6.172;2023-07-13T14:34:10;101100.25;;;24.95
24586;BMP280;12743;52.262;6.172;2023-07-13T14:36:40;101112.53;;;23.82
24586;BMP280;12743;52.262;6.172;2023-07-13T14:39:18;101103.81;;;23.02
24586;BMP280;12743;52.262;6.172;2023-07-13T14:41:45;101095.84;;;22.68
24586;BMP280;12743;52.262;6.172;2023-07-13T14:44:17;101094.75;;;22.66